Alto Pass, Illinois
Current Conditions -  °F | °C
As of 7:52 AM on Saturday 01 Nov 2014 (Local Time) from KMDH Reporting Station
Clear Clear  
Wind Chill: 22°   Ceiling: Unl
Heat Index: 30°   Visibility: 10mi
Dew Point: 22°   Wind: 9mph
Humidity: 72%   Direction: 330°NNW
Pressure: 30.41"   Gusts: NA
Location:  37.57°N, 89.32°W
Report Text: KMDH 011252Z AUTO 33008KT 10SM CLR M01/M06 A3041 RMK AO2 SLP300 T10111056 TSNO $
Loading
Personal Weather Stations






























Interactive Weather Map
Tropical Storm Tracking
New forecast layout! Learn more

10-Day Weather Forecast

Advertisements
Track Severe Weather on mobile